Impacts METAR Board INFO
IDs:

KLGA - New York/La Guardia, NY, US

Updated at: 1430 UTC 18 Dec 2017
Potential Impact None Slight Moderate High
Time18/02Z 18/03Z 18/04Z 18/05Z 18/06Z 18/07Z 18/08Z 18/09Z 18/10Z 18/11Z 18/12Z 18/13Z 18/14Z
VIS10 10 10 10 10 10 10 10 10 10 10 10 10
CIG20 19 19 19 19 19 18 41 14 13 11 11 11
CoverOVCOVCOVCOVCOVCOVCOVCOVCOVCOVCOVCOVCOVC
FltCatMVFRMVFRMVFRMVFRMVFRMVFRMVFRVFRMVFRMVFRMVFRMVFRMVFR
WX-------------RA-RA----------
WDir60808090808090705050505040
WSpd6 6 7 6 6 6 6 7 6 8 5 7 7
WGst-- -- -- -- -- -- -- -- -- -- -- -- --
Raw hourly METARs
KLGA 180151Z 06006KT 10SM OVC020 02/M04 A3025 RMK AO2 SLP244 T00171039 $
KLGA 180251Z 08006KT 10SM OVC019 02/M04 A3024 RMK AO2 SLP239 T00171039 58010 $
KLGA 180351Z 08007KT 10SM OVC019 02/M04 A3022 RMK AO2 SLP231 T00171044 $
KLGA 180451Z 09006KT 10SM OVC019 02/M04 A3020 RMK AO2 SLP227 T00171044 400280006 $
KLGA 180551Z 08006KT 10SM OVC019 02/M04 A3019 RMK AO2 SLP223 T00171044 10022 20017 56016 $
KLGA 180651Z 08006KT 10SM OVC019 02/M05 A3019 RMK AO2 SLP223 T00171050 $
KLGA 180751Z COR 09006KT 10SM -RA BKN018 OVC027 02/M04 A3018 RMK AO2 RAB17 SLP220 P0000 T00171039 $
KLGA 180851Z 07007KT 10SM -RA FEW020 BKN041 OVC060 02/M02 A3015 RMK AO2 SLP208 P0002 60002 T00171022 58015 $
KLGA 180958Z 05006KT 10SM BKN014 OVC050 02/M02 A3015 RMK AO2 T00221017 $
KLGA 181051Z 05008KT 10SM BKN013 OVC050 02/M01 A3014 RMK AO2 SLP204 T00221011 $
KLGA 181151Z 05005KT 10SM OVC011 02/M01 A3013 RMK AO2 SLP203 60002 70002 T00221011 10028 20011 56005 $
KLGA 181251Z 05007KT 10SM OVC011 03/M01 A3012 RMK AO2 SLP199 T00281006 $
KLGA 181351Z 04007KT 10SM BKN011 OVC047 03/M01 A3011 RMK AO2 SLP197 T00281006 $